LFLSLFLB

Guest
Details From LFLS - St Geoirs
To LFLB - Aix-Les-Bains
Flight Number -
Tags generated
Created
Modified
Stats Distance 30 nm / 55 km
Max Altitude 3,200 ft / 975 m
Waypoints 3
Social Downloads 2
Likes 0
Share VATSIM

Download

Looking for another format? Having issues loading an existing format? Contact us
Advertisement - Login to hide

Notes

Basic altitude profile: - Ascent Rate: 2500ft/min - Ascent Speed: 250kts - Cruise Altitude: 35000ft - Cruise Speed: 420kts - Descent Rate: 1500ft/min - Descent Speed: 250kts

Route

LFLS LTP LFLB

ID Type Via Altitude Latitude Longitude Leg Dist Tot Dist Heading (true) Name
O LFLS APT - 0 ft / 0 m 45.36118˚ 5.32753˚ - 0 nm - St Geoirs
LTP VOR - 3,200 ft / 975 m 45.48897˚ 5.43906˚ 9 nm 9 nm 31° / 32° LA TOUR DU PIN-Lyon Est VOR-DM
O LFLB APT - 0 ft / 0 m 45.63623˚ 5.88090˚ 20 nm 29 nm 64° / 65° Aix-Les-Bains

Altitude Profile

Advertisement - Login to hide

LFLS

Details ICAO LFLS (GNB)
Name St Geoirs
Region France
Timezone Europe/Paris (UTC+1.0)
Stats Elevation 1,302 ft / 397 m (AMSL)
Location 45.361183° 5.327528°
Runways 3
Magnetic Variation 1.556° E

METAR

LFLS 180000Z AUTO 01003KT 9999 FEW014 M01/M03 Q1029

Decode

TAF

TAF LFLS 172000Z 1720/1815 CNL

Decode

Departure Runways

ID Width Length Bearing (true) Bearing (mag) Surface Threshold Offset Overrun Length
09 148 ft / 45 m 9,979 ft / 3,042 m 90.22° 88.66° Asphalt 0 ft / 0 m 0 ft / 0 m
09R 102 ft / 31 m 2,951 ft / 899 m 90.20° 88.64° Grass 0 ft / 0 m 0 ft / 0 m
16 82 ft / 25 m 1,640 ft / 500 m 160.10° 158.54° Grass 0 ft / 0 m 0 ft / 0 m
27 148 ft / 45 m 9,979 ft / 3,042 m 270.24° 268.68° Asphalt 0 ft / 0 m 0 ft / 0 m
27L 102 ft / 31 m 2,951 ft / 899 m 270.20° 268.64° Grass 0 ft / 0 m 0 ft / 0 m
34 82 ft / 25 m 1,640 ft / 500 m 340.10° 338.54° Grass 0 ft / 0 m 0 ft / 0 m

LFLB

Details ICAO LFLB (CMF)
Name Aix-Les-Bains
Region France
Timezone Europe/Paris (UTC+1.0)
Stats Elevation 779 ft / 237 m (AMSL)
Location 45.636234° 5.880898°
Runways 2
Magnetic Variation 1.691° E

METAR

LFLB 180000Z AUTO 18004KT 9999 BKN012 BKN021 BKN037 01/M01 Q1029

Decode

TAF

TAF LFLB 172201Z 1722/1818 CNL

Decode

Destination Runways

ID Width Length Bearing (true) Bearing (mag) Surface Threshold Offset Overrun Length
18 148 ft / 45 m 5,452 ft / 1,662 m 176.72° 175.03° Asphalt 26 ft / 8 m 774 ft / 236 m
18L 197 ft / 60 m 2,309 ft / 704 m 176.70° 175.01° Grass 0 ft / 0 m 0 ft / 0 m
36 148 ft / 45 m 5,452 ft / 1,662 m 356.72° 355.03° Asphalt 23 ft / 7 m 456 ft / 139 m
36R 197 ft / 60 m 2,309 ft / 704 m 356.70° 355.01° Grass 315 ft / 96 m 0 ft / 0 m

Approach Navaids

Runway Type Ident Frequency Range Bearing (true) Bearing (mag) Slope Elevation
18 Localiser CY 109.50 MHz 27 nm / 50 km 176.73° 175.04° - 779 ft / 237 m (AMSL)
18 Glidescope CY 109.50 MHz 27 nm / 50 km 176.73° 175.04° 4.46° 779 ft / 237 m (AMSL)
18 DME CY 109.50 MHz 27 nm / 50 km - - - 779 ft / 237 m (AMSL)

Popular Alternatives